PWSweather.com
Personal Weather Stations
Station Observations

YeovilGB

Lat: 50.949, Lon: -2.627

Elevation: 70

Station Type: Vantage Pro

http://www.yeovil-weather.me.uk/

High Low Average
Temperature 40.4°F4.7°C 31.8°F-0.1°C 37.1°F2.8°C
Dew Point 38.9°F3.8°C 30.5°F-0.8°C 35.7°F2.1°C
Winds 4.6 mph 7.4 kmh Calm Calm Calm WSWCalm WSW
Wind Gusts 12.7 mph20.4 kmh -- 1.0 mph1.6 kmh
Humidity 97% 91% 95%
Pressure 29.66 in1004.4 mb 29.20 in988.8 mb -
Precipitation 0.00 in0.0 mm - -
Hour Temp Dew Point Humidity Winds Wind Gusts Pressure Precip Precip Rate Daily Precip Total
12:00 AM 35.5°F1.9°C 34.2°F1.2°C 95% Calm Calm -- 29.20 in988.8 mb - 0.00 in0.0 mm 0.00 in0.0 mm
12:10 AM 35.3°F1.8°C 34.0°F1.1°C 95% Calm Calm -- 29.20 in988.8 mb - 0.00 in0.0 mm 0.00 in0.0 mm
12:20 AM 35.4°F1.9°C 34.1°F1.2°C 95% Calm Calm -- 29.20 in988.8 mb - 0.00 in0.0 mm 0.00 in0.0 mm
12:30 AM 35.6°F2.0°C 34.3°F1.3°C 95% Calm Calm -- 29.20 in988.8 mb - 0.00 in0.0 mm 0.00 in0.0 mm
12:40 AM 35.6°F2.0°C 34.3°F1.3°C 95% Calm Calm -- 29.20 in988.8 mb - 0.00 in0.0 mm 0.00 in0.0 mm
12:50 AM 35.4°F1.9°C 34.1°F1.2°C 95% Calm Calm -- 29.20 in988.8 mb - 0.00 in0.0 mm 0.00 in0.0 mm
01:00 AM 35.3°F1.8°C 34.0°F1.1°C 95% Calm Calm -- 29.21 in989.2 mb - 0.00 in0.0 mm 0.00 in0.0 mm
01:10 AM 35.3°F1.8°C 34.0°F1.1°C 95% Calm Calm -- 29.20 in988.8 mb - 0.00 in0.0 mm 0.00 in0.0 mm
01:20 AM 35.3°F1.8°C 34.0°F1.1°C 95% Calm Calm -- 29.20 in988.8 mb - 0.00 in0.0 mm 0.00 in0.0 mm
01:30 AM 35.2°F1.8°C 33.9°F1.1°C 95% Calm Calm -- 29.20 in988.8 mb - 0.00 in0.0 mm 0.00 in0.0 mm
01:40 AM 35.0°F1.7°C 33.7°F0.9°C 95% Calm Calm -- 29.20 in988.8 mb - 0.00 in0.0 mm 0.00 in0.0 mm
01:50 AM 34.7°F1.5°C 33.4°F0.8°C 95% Calm Calm -- 29.20 in988.8 mb - 0.00 in0.0 mm 0.00 in0.0 mm
02:00 AM 34.4°F1.3°C 33.1°F0.6°C 95% Calm Calm -- 29.21 in989.2 mb - 0.00 in0.0 mm 0.00 in0.0 mm
02:10 AM 34.4°F1.3°C 33.1°F0.6°C 95% Calm Calm -- 29.21 in989.2 mb - 0.00 in0.0 mm 0.00 in0.0 mm
02:20 AM 34.3°F1.3°C 33.0°F0.6°C 95% Calm Calm -- 29.21 in989.2 mb - 0.00 in0.0 mm 0.00 in0.0 mm
02:30 AM 34.0°F1.1°C 32.7°F0.4°C 95% Calm Calm -- 29.21 in989.2 mb - 0.00 in0.0 mm 0.00 in0.0 mm
02:40 AM 33.7°F0.9°C 32.4°F0.2°C 95% Calm Calm -- 29.21 in989.2 mb - 0.00 in0.0 mm 0.00 in0.0 mm
02:50 AM 33.6°F0.9°C 32.3°F0.2°C 95% Calm Calm -- 29.21 in989.2 mb - 0.00 in0.0 mm 0.00 in0.0 mm
03:00 AM 33.4°F0.8°C 32.2°F0.1°C 95% Calm Calm -- 29.21 in989.2 mb - 0.00 in0.0 mm 0.00 in0.0 mm
03:10 AM 33.3°F0.7°C 32.0°F0.0°C 95% Calm Calm -- 29.21 in989.2 mb - 0.00 in0.0 mm 0.00 in0.0 mm
03:20 AM 33.1°F0.6°C 31.8°F-0.1°C 95% Calm Calm -- 29.22 in989.5 mb - 0.00 in0.0 mm 0.00 in0.0 mm
03:30 AM 32.9°F0.5°C 31.6°F-0.2°C 95% Calm Calm -- 29.22 in989.5 mb - 0.00 in0.0 mm 0.00 in0.0 mm
03:40 AM 32.8°F0.4°C 31.5°F-0.3°C 95% Calm Calm -- 29.23 in989.8 mb - 0.00 in0.0 mm 0.00 in0.0 mm
03:50 AM 32.7°F0.4°C 31.4°F-0.3°C 95% Calm Calm -- 29.23 in989.8 mb - 0.00 in0.0 mm 0.00 in0.0 mm
04:00 AM 32.5°F0.3°C 31.2°F-0.4°C 95% Calm Calm -- 29.23 in989.8 mb - 0.00 in0.0 mm 0.00 in0.0 mm
04:10 AM 32.4°F0.2°C 31.1°F-0.5°C 95% Calm Calm -- 29.23 in989.8 mb - 0.00 in0.0 mm 0.00 in0.0 mm
04:20 AM 32.3°F0.2°C 31.0°F-0.6°C 95% Calm Calm 2.3 mph3.7 kmh 29.24 in990.2 mb - 0.00 in0.0 mm 0.00 in0.0 mm
04:30 AM 32.5°F0.3°C 31.5°F-0.3°C 96% Calm Calm -- 29.24 in990.2 mb - 0.00 in0.0 mm 0.00 in0.0 mm
04:40 AM 32.5°F0.3°C 31.5°F-0.3°C 96% Calm Calm -- 29.24 in990.2 mb - 0.00 in0.0 mm 0.00 in0.0 mm
04:50 AM 32.3°F0.2°C 31.0°F-0.6°C 95% Calm Calm -- 29.24 in990.2 mb - 0.00 in0.0 mm 0.00 in0.0 mm
05:00 AM 32.2°F0.1°C 30.9°F-0.6°C 95% Calm Calm -- 29.24 in990.2 mb - 0.00 in0.0 mm 0.00 in0.0 mm
05:10 AM 32.0°F0.0°C 30.7°F-0.7°C 95% Calm Calm -- 29.25 in990.5 mb - 0.00 in0.0 mm 0.00 in0.0 mm
05:20 AM 32.0°F0.0°C 31.0°F-0.6°C 96% Calm Calm -- 29.25 in990.5 mb - 0.00 in0.0 mm 0.00 in0.0 mm
05:30 AM 31.9°F-0.1°C 30.9°F-0.6°C 96% Calm Calm -- 29.25 in990.5 mb - 0.00 in0.0 mm 0.00 in0.0 mm
05:40 AM 31.8°F-0.1°C 30.5°F-0.8°C 95% Calm Calm -- 29.26 in990.9 mb - 0.00 in0.0 mm 0.00 in0.0 mm
05:50 AM 31.8°F-0.1°C 30.5°F-0.8°C 95% Calm Calm -- 29.26 in990.9 mb - 0.00 in0.0 mm 0.00 in0.0 mm
06:00 AM 31.9°F-0.1°C 30.9°F-0.6°C 96% Calm Calm -- 29.27 in991.2 mb - 0.00 in0.0 mm 0.00 in0.0 mm
06:10 AM 32.0°F0.0°C 31.0°F-0.6°C 96% Calm Calm -- 29.27 in991.2 mb - 0.00 in0.0 mm 0.00 in0.0 mm
06:20 AM 32.1°F0.1°C 31.1°F-0.5°C 96% Calm Calm -- 29.28 in991.5 mb - 0.00 in0.0 mm 0.00 in0.0 mm
06:30 AM 32.2°F0.1°C 31.2°F-0.4°C 96% Calm Calm -- 29.28 in991.5 mb - 0.00 in0.0 mm 0.00 in0.0 mm
06:40 AM 32.5°F0.3°C 31.5°F-0.3°C 96% Calm Calm -- 29.29 in991.9 mb - 0.00 in0.0 mm 0.00 in0.0 mm
06:50 AM 32.7°F0.4°C 31.7°F-0.2°C 96% Calm Calm -- 29.30 in992.2 mb - 0.00 in0.0 mm 0.00 in0.0 mm
07:00 AM 32.9°F0.5°C 31.9°F-0.1°C 96% Calm Calm -- 29.30 in992.2 mb - 0.00 in0.0 mm 0.00 in0.0 mm
07:10 AM 33.0°F0.6°C 32.0°F0.0°C 96% Calm Calm -- 29.30 in992.2 mb - 0.00 in0.0 mm 0.00 in0.0 mm
07:20 AM 33.2°F0.7°C 32.2°F0.1°C 96% Calm Calm -- 29.30 in992.2 mb - 0.00 in0.0 mm 0.00 in0.0 mm
07:30 AM 33.4°F0.8°C 32.4°F0.2°C 96% Calm Calm -- 29.30 in992.2 mb - 0.00 in0.0 mm 0.00 in0.0 mm
07:40 AM 33.5°F0.8°C 32.5°F0.3°C 96% Calm Calm -- 29.31 in992.6 mb - 0.00 in0.0 mm 0.00 in0.0 mm
07:50 AM 33.9°F1.1°C 32.9°F0.5°C 96% Calm Calm -- 29.31 in992.6 mb - 0.00 in0.0 mm 0.00 in0.0 mm
08:00 AM 34.2°F1.2°C 33.5°F0.8°C 97% Calm Calm -- 29.32 in992.9 mb - 0.00 in0.0 mm 0.00 in0.0 mm
08:10 AM 34.6°F1.4°C 33.8°F1.0°C 97% Calm Calm -- 29.32 in992.9 mb - 0.00 in0.0 mm 0.00 in0.0 mm
08:20 AM 35.0°F1.7°C 34.2°F1.2°C 97% Calm Calm -- 29.32 in992.9 mb - 0.00 in0.0 mm 0.00 in0.0 mm
08:30 AM 35.4°F1.9°C 34.6°F1.4°C 97% Calm Calm -- 29.32 in992.9 mb - 0.00 in0.0 mm 0.00 in0.0 mm
08:40 AM 35.7°F2.1°C 35.0°F1.7°C 97% Calm Calm -- 29.33 in993.2 mb - 0.00 in0.0 mm 0.00 in0.0 mm
08:50 AM 36.2°F2.3°C 35.4°F1.9°C 97% Calm Calm -- 29.33 in993.2 mb - 0.00 in0.0 mm 0.00 in0.0 mm
09:00 AM 36.4°F2.4°C 35.7°F2.1°C 97% Calm Calm -- 29.33 in993.2 mb - 0.00 in0.0 mm 0.00 in0.0 mm
09:10 AM 36.6°F2.6°C 35.8°F2.1°C 97% Calm Calm -- 29.33 in993.2 mb - 0.00 in0.0 mm 0.00 in0.0 mm
09:20 AM 36.8°F2.7°C 36.0°F2.2°C 97% Calm Calm 3.5 mph5.6 kmh 29.33 in993.2 mb - 0.00 in0.0 mm 0.00 in0.0 mm
09:30 AM 36.8°F2.7°C 35.8°F2.1°C 96% Calm Calm 1.2 mph1.9 kmh 29.33 in993.2 mb - 0.00 in0.0 mm 0.00 in0.0 mm
09:40 AM 36.9°F2.7°C 35.8°F2.1°C 96% 1.2 mph WNW1.9 kmh WNW 3.5 mph5.6 kmh 29.34 in993.6 mb - 0.00 in0.0 mm 0.00 in0.0 mm
09:50 AM 36.8°F2.7°C 35.8°F2.1°C 96% Calm Calm 2.3 mph3.7 kmh 29.34 in993.6 mb - 0.00 in0.0 mm 0.00 in0.0 mm
10:00 AM 36.8°F2.7°C 35.8°F2.1°C 96% Calm Calm -- 29.34 in993.6 mb - 0.00 in0.0 mm 0.00 in0.0 mm
10:10 AM 36.7°F2.6°C 35.7°F2.1°C 96% Calm Calm -- 29.35 in993.9 mb - 0.00 in0.0 mm 0.00 in0.0 mm
10:20 AM 36.8°F2.7°C 35.7°F2.1°C 96% Calm Calm -- 29.36 in994.2 mb - 0.00 in0.0 mm 0.00 in0.0 mm
10:30 AM 36.8°F2.7°C 35.8°F2.1°C 96% Calm Calm -- 29.36 in994.2 mb - 0.00 in0.0 mm 0.00 in0.0 mm
10:40 AM 36.9°F2.7°C 35.9°F2.2°C 96% Calm Calm -- 29.36 in994.2 mb - 0.00 in0.0 mm 0.00 in0.0 mm
10:50 AM 37.1°F2.8°C 36.3°F2.4°C 97% Calm Calm -- 29.37 in994.6 mb - 0.00 in0.0 mm 0.00 in0.0 mm
11:00 AM 37.3°F2.9°C 36.5°F2.5°C 97% Calm Calm -- 29.37 in994.6 mb - 0.00 in0.0 mm 0.00 in0.0 mm
11:10 AM 37.5°F3.1°C 36.5°F2.5°C 96% Calm Calm -- 29.37 in994.6 mb - 0.00 in0.0 mm 0.00 in0.0 mm
11:20 AM 37.5°F3.1°C 36.5°F2.5°C 96% Calm Calm -- 29.37 in994.6 mb - 0.00 in0.0 mm 0.00 in0.0 mm
11:30 AM 37.9°F3.3°C 37.1°F2.8°C 97% Calm Calm -- 29.37 in994.6 mb - 0.00 in0.0 mm 0.00 in0.0 mm
11:40 AM 38.0°F3.3°C 36.9°F2.7°C 96% Calm Calm -- 29.38 in994.9 mb - 0.00 in0.0 mm 0.00 in0.0 mm
11:50 AM 38.0°F3.3°C 37.0°F2.8°C 96% Calm Calm -- 29.38 in994.9 mb - 0.00 in0.0 mm 0.00 in0.0 mm
12:00 PM 38.5°F3.6°C 37.7°F3.2°C 97% Calm Calm -- 29.38 in994.9 mb - 0.00 in0.0 mm 0.00 in0.0 mm
12:10 PM 38.8°F3.8°C 37.8°F3.2°C 96% Calm Calm -- 29.38 in994.9 mb - 0.00 in0.0 mm 0.00 in0.0 mm
12:20 PM 38.7°F3.7°C 37.7°F3.2°C 96% Calm Calm -- 29.39 in995.3 mb - 0.00 in0.0 mm 0.00 in0.0 mm
12:30 PM 38.9°F3.8°C 37.8°F3.2°C 96% Calm Calm -- 29.39 in995.3 mb - 0.00 in0.0 mm 0.00 in0.0 mm
12:40 PM 38.7°F3.7°C 37.7°F3.2°C 96% Calm Calm -- 29.39 in995.3 mb - 0.00 in0.0 mm 0.00 in0.0 mm
12:50 PM 38.9°F3.8°C 37.9°F3.3°C 96% Calm Calm -- 29.39 in995.3 mb - 0.00 in0.0 mm 0.00 in0.0 mm
01:00 PM 38.9°F3.8°C 37.9°F3.3°C 96% Calm Calm -- 29.40 in995.6 mb - 0.00 in0.0 mm 0.00 in0.0 mm
01:10 PM 39.1°F3.9°C 37.8°F3.2°C 95% Calm Calm -- 29.40 in995.6 mb - 0.00 in0.0 mm 0.00 in0.0 mm
01:20 PM 39.2°F4.0°C 37.9°F3.3°C 95% Calm Calm -- 29.40 in995.6 mb - 0.00 in0.0 mm 0.00 in0.0 mm
01:30 PM 39.3°F4.1°C 37.9°F3.3°C 95% Calm Calm -- 29.41 in995.9 mb - 0.00 in0.0 mm 0.00 in0.0 mm
01:40 PM 39.2°F4.0°C 37.7°F3.2°C 94% Calm Calm -- 29.41 in995.9 mb - 0.00 in0.0 mm 0.00 in0.0 mm
01:50 PM 39.3°F4.1°C 37.7°F3.2°C 94% Calm Calm -- 29.42 in996.3 mb - 0.00 in0.0 mm 0.00 in0.0 mm
02:00 PM 39.5°F4.2°C 38.2°F3.4°C 95% Calm Calm -- 29.41 in995.9 mb - 0.00 in0.0 mm 0.00 in0.0 mm
02:10 PM 39.7°F4.3°C 38.1°F3.4°C 94% Calm Calm -- 29.41 in995.9 mb - 0.00 in0.0 mm 0.00 in0.0 mm
02:20 PM 39.7°F4.3°C 38.1°F3.4°C 94% Calm Calm -- 29.42 in996.3 mb - 0.00 in0.0 mm 0.00 in0.0 mm
02:30 PM 39.7°F4.3°C 38.1°F3.4°C 94% Calm Calm -- 29.42 in996.3 mb - 0.00 in0.0 mm 0.00 in0.0 mm
02:40 PM 39.7°F4.3°C 37.9°F3.3°C 93% Calm Calm -- 29.43 in996.6 mb - 0.00 in0.0 mm 0.00 in0.0 mm
02:50 PM 39.8°F4.3°C 37.9°F3.3°C 93% Calm Calm -- 29.43 in996.6 mb - 0.00 in0.0 mm 0.00 in0.0 mm
03:00 PM 39.8°F4.3°C 37.9°F3.3°C 93% Calm Calm -- 29.44 in997.0 mb - 0.00 in0.0 mm 0.00 in0.0 mm
03:10 PM 39.9°F4.4°C 38.1°F3.4°C 93% Calm Calm -- 29.44 in997.0 mb - 0.00 in0.0 mm 0.00 in0.0 mm
03:20 PM 40.1°F4.5°C 38.2°F3.4°C 93% Calm Calm -- 29.45 in997.3 mb - 0.00 in0.0 mm 0.00 in0.0 mm
03:30 PM 40.2°F4.6°C 38.3°F3.5°C 93% Calm Calm -- 29.45 in997.3 mb - 0.00 in0.0 mm 0.00 in0.0 mm
03:40 PM 40.3°F4.6°C 38.2°F3.4°C 92% Calm Calm -- 29.46 in997.6 mb - 0.00 in0.0 mm 0.00 in0.0 mm
03:50 PM 40.2°F4.6°C 38.1°F3.4°C 92% Calm Calm -- 29.46 in997.6 mb - 0.00 in0.0 mm 0.00 in0.0 mm
04:00 PM 40.2°F4.6°C 38.1°F3.4°C 92% Calm Calm -- 29.47 in998.0 mb - 0.00 in0.0 mm 0.00 in0.0 mm
04:10 PM 40.3°F4.6°C 38.1°F3.4°C 92% Calm Calm -- 29.48 in998.3 mb - 0.00 in0.0 mm 0.00 in0.0 mm
04:20 PM 40.3°F4.6°C 38.2°F3.4°C 92% Calm Calm -- 29.48 in998.3 mb - 0.00 in0.0 mm 0.00 in0.0 mm
04:30 PM 40.3°F4.6°C 38.2°F3.4°C 92% Calm Calm -- 29.48 in998.3 mb - 0.00 in0.0 mm 0.00 in0.0 mm
04:40 PM 40.3°F4.6°C 38.5°F3.6°C 93% Calm Calm -- 29.49 in998.6 mb - 0.00 in0.0 mm 0.00 in0.0 mm
04:50 PM 40.3°F4.6°C 38.5°F3.6°C 93% Calm Calm -- 29.50 in999.0 mb - 0.00 in0.0 mm 0.00 in0.0 mm
05:00 PM 40.3°F4.6°C 38.4°F3.6°C 93% Calm Calm -- 29.51 in999.3 mb - 0.00 in0.0 mm 0.00 in0.0 mm
05:10 PM 40.2°F4.6°C 38.3°F3.5°C 93% Calm Calm 1.2 mph1.9 kmh 29.52 in999.7 mb - 0.00 in0.0 mm 0.00 in0.0 mm
05:20 PM 40.0°F4.4°C 37.9°F3.3°C 92% Calm Calm 2.3 mph3.7 kmh 29.52 in999.7 mb - 0.00 in0.0 mm 0.00 in0.0 mm
05:30 PM 40.0°F4.4°C 37.8°F3.2°C 92% 1.2 mph N1.9 kmh N 3.5 mph5.6 kmh 29.53 in1000.0 mb - 0.00 in0.0 mm 0.00 in0.0 mm
05:40 PM 40.0°F4.4°C 37.6°F3.1°C 91% Calm Calm -- 29.53 in1000.0 mb - 0.00 in0.0 mm 0.00 in0.0 mm
05:50 PM 40.1°F4.5°C 37.7°F3.2°C 91% Calm Calm -- 29.54 in1000.3 mb - 0.00 in0.0 mm 0.00 in0.0 mm
06:00 PM 40.1°F4.5°C 37.7°F3.2°C 91% 1.2 mph N1.9 kmh N 4.6 mph7.4 kmh 29.54 in1000.3 mb - 0.00 in0.0 mm 0.00 in0.0 mm
06:10 PM 40.1°F4.5°C 37.7°F3.2°C 91% Calm Calm -- 29.55 in1000.7 mb - 0.00 in0.0 mm 0.00 in0.0 mm
06:20 PM 40.1°F4.5°C 38.0°F3.3°C 92% 1.2 mph N1.9 kmh N 4.6 mph7.4 kmh 29.56 in1001.0 mb - 0.00 in0.0 mm 0.00 in0.0 mm
06:30 PM 40.1°F4.5°C 38.0°F3.3°C 92% 1.2 mph N1.9 kmh N 4.6 mph7.4 kmh 29.56 in1001.0 mb - 0.00 in0.0 mm 0.00 in0.0 mm
06:40 PM 40.2°F4.6°C 38.0°F3.3°C 92% 1.2 mph NNW1.9 kmh NNW 5.8 mph9.3 kmh 29.57 in1001.4 mb - 0.00 in0.0 mm 0.00 in0.0 mm
06:50 PM 40.2°F4.6°C 38.1°F3.4°C 92% 4.6 mph NW7.4 kmh NW 5.8 mph9.3 kmh 29.57 in1001.4 mb - 0.00 in0.0 mm 0.00 in0.0 mm
07:00 PM 40.1°F4.5°C 38.3°F3.5°C 93% 2.3 mph NNW3.7 kmh NNW 4.6 mph7.4 kmh 29.57 in1001.4 mb - 0.00 in0.0 mm 0.00 in0.0 mm
07:10 PM 40.1°F4.5°C 38.2°F3.4°C 93% 1.2 mph N1.9 kmh N 5.8 mph9.3 kmh 29.58 in1001.7 mb - 0.00 in0.0 mm 0.00 in0.0 mm
07:20 PM 40.0°F4.4°C 38.1°F3.4°C 93% Calm Calm 5.8 mph9.3 kmh 29.58 in1001.7 mb - 0.00 in0.0 mm 0.00 in0.0 mm
07:30 PM 39.8°F4.3°C 38.0°F3.3°C 93% 1.2 mph NNW1.9 kmh NNW 5.8 mph9.3 kmh 29.58 in1001.7 mb - 0.00 in0.0 mm 0.00 in0.0 mm
07:50 PM 39.6°F4.2°C 37.7°F3.2°C 93% 2.3 mph NNW3.7 kmh NNW 4.6 mph7.4 kmh 29.59 in1002.0 mb - 0.00 in0.0 mm 0.00 in0.0 mm
08:00 PM 39.2°F4.0°C 37.3°F2.9°C 93% 1.2 mph NW1.9 kmh NW 3.5 mph5.6 kmh 29.59 in1002.0 mb - 0.00 in0.0 mm 0.00 in0.0 mm
08:10 PM 39.0°F3.9°C 37.1°F2.8°C 93% Calm Calm 2.3 mph3.7 kmh 29.59 in1002.0 mb - 0.00 in0.0 mm 0.00 in0.0 mm
08:20 PM 38.9°F3.8°C 37.3°F2.9°C 94% 1.2 mph N1.9 kmh N 4.6 mph7.4 kmh 29.60 in1002.4 mb - 0.00 in0.0 mm 0.00 in0.0 mm
08:30 PM 39.0°F3.9°C 37.4°F3.0°C 94% Calm Calm 5.8 mph9.3 kmh 29.60 in1002.4 mb - 0.00 in0.0 mm 0.00 in0.0 mm
08:40 PM 39.3°F4.1°C 37.7°F3.2°C 94% Calm Calm 1.2 mph1.9 kmh 29.61 in1002.7 mb - 0.00 in0.0 mm 0.00 in0.0 mm
08:50 PM 39.4°F4.1°C 37.8°F3.2°C 94% 2.3 mph NNW3.7 kmh NNW 6.9 mph11.1 kmh 29.61 in1002.7 mb - 0.00 in0.0 mm 0.00 in0.0 mm
09:00 PM 39.3°F4.1°C 37.7°F3.2°C 94% 1.2 mph N1.9 kmh N 5.8 mph9.3 kmh 29.62 in1003.0 mb - 0.00 in0.0 mm 0.00 in0.0 mm
09:10 PM 39.3°F4.1°C 37.7°F3.2°C 94% 1.2 mph N1.9 kmh N 4.6 mph7.4 kmh 29.62 in1003.0 mb - 0.00 in0.0 mm 0.00 in0.0 mm
09:20 PM 39.2°F4.0°C 37.6°F3.1°C 94% 3.5 mph NNW5.6 kmh NNW 5.8 mph9.3 kmh 29.62 in1003.0 mb - 0.00 in0.0 mm 0.00 in0.0 mm
09:30 PM 39.3°F4.1°C 37.7°F3.2°C 94% 2.3 mph NNW3.7 kmh NNW 4.6 mph7.4 kmh 29.63 in1003.4 mb - 0.00 in0.0 mm 0.00 in0.0 mm
09:40 PM 39.4°F4.1°C 38.1°F3.4°C 95% Calm Calm 1.2 mph1.9 kmh 29.63 in1003.4 mb - 0.00 in0.0 mm 0.00 in0.0 mm
09:50 PM 39.5°F4.2°C 38.2°F3.4°C 95% 1.2 mph N1.9 kmh N 5.8 mph9.3 kmh 29.63 in1003.4 mb - 0.00 in0.0 mm 0.00 in0.0 mm
10:00 PM 39.5°F4.2°C 37.9°F3.3°C 94% 2.3 mph N3.7 kmh N 5.8 mph9.3 kmh 29.63 in1003.4 mb - 0.00 in0.0 mm 0.00 in0.0 mm
10:10 PM 39.6°F4.2°C 38.3°F3.5°C 95% 1.2 mph 1.9 kmh 4.6 mph7.4 kmh 29.63 in1003.4 mb - 0.00 in0.0 mm 0.00 in0.0 mm
10:20 PM 39.6°F4.2°C 38.3°F3.5°C 95% Calm Calm -- 29.63 in1003.4 mb - 0.00 in0.0 mm 0.00 in0.0 mm
10:30 PM 39.6°F4.2°C 38.3°F3.5°C 95% Calm Calm 2.3 mph3.7 kmh 29.63 in1003.4 mb - 0.00 in0.0 mm 0.00 in0.0 mm
10:40 PM 39.5°F4.2°C 37.9°F3.3°C 94% 2.3 mph N3.7 kmh N 6.9 mph11.1 kmh 29.64 in1003.7 mb - 0.00 in0.0 mm 0.00 in0.0 mm
10:50 PM 39.6°F4.2°C 38.3°F3.5°C 95% 1.2 mph NNW1.9 kmh NNW -- 29.64 in1003.7 mb - 0.00 in0.0 mm 0.00 in0.0 mm
11:00 PM 39.8°F4.3°C 38.5°F3.6°C 95% Calm Calm 2.3 mph3.7 kmh 29.65 in1004.1 mb - 0.00 in0.0 mm 0.00 in0.0 mm
11:10 PM 40.1°F4.5°C 38.8°F3.8°C 95% 3.5 mph N5.6 kmh N 8.1 mph13.0 kmh 29.65 in1004.1 mb - 0.00 in0.0 mm 0.00 in0.0 mm
11:20 PM 40.2°F4.6°C 38.9°F3.8°C 95% 2.3 mph N3.7 kmh N 12.7 mph20.4 kmh 29.65 in1004.1 mb - 0.00 in0.0 mm 0.00 in0.0 mm
11:30 PM 40.2°F4.6°C 38.6°F3.7°C 94% 2.3 mph N3.7 kmh N 10.4 mph16.7 kmh 29.65 in1004.1 mb - 0.00 in0.0 mm 0.00 in0.0 mm
11:40 PM 40.3°F4.6°C 38.7°F3.7°C 94% 3.5 mph N5.6 kmh N 6.9 mph11.1 kmh 29.66 in1004.4 mb - 0.00 in0.0 mm 0.00 in0.0 mm
11:50 PM 40.4°F4.7°C 38.8°F3.8°C 94% 2.3 mph NNW3.7 kmh NNW 9.2 mph14.8 kmh 29.66 in1004.4 mb - 0.00 in0.0 mm 0.00 in0.0 mm